Airfield :
LOGIN :

Register | Disclaimer

   EN    FR    IT 

 










Legend :    VFR   Marginal VFR   IFR   Intensive IFR   Very Intensive IFR
Visi :
Ceiling :
>= 8 km
>= 3000ft
5 to 8 km
1000 to 3000 ft
1500m to 5 km
500 to 1000 ft
800 to 1500m
200 to 500 ft
< 800m
< 200 ft
Symbols :   Thunderstorms  Fog  Heavy snow  Heavy precipitations  Wind > 20 kt
SIGMETs :     Misc.  Thunderstorms  Icing  Turbulence  Mountain Waves  Volcanic Ashes






- Airport Elevation : 3 ft
- IATA code : DHR


EHKD - Den Helder De Kooy

CURRENT METAR :
  • 200225Z AUTO 21027KT 180V240 9999 OVC011 08/06 Q0996 GRN

EXPIRED METARs :
  • 200155Z AUTO 21026KT 9999 OVC011 08/06 Q0996 GRN
  • 200125Z AUTO 21026G38KT 180V250 9999 OVC012 08/06 Q0996 GRN
  • 200055Z AUTO 21026G36KT 180V240 9999 BKN014 OVC016 08/05 Q0996 GRN
  • 200043Z AUTO 21027G38KT 170V240 9999 FEW014 OVC016 08/05 Q0997 WHT
  • 200032Z AUTO 21026KT 180V250 9999 FEW013 OVC015 08/05 Q0997 WHT
  • 200025Z AUTO 21025G35KT 180V240 9999 FEW014 OVC016 08/05 Q0997 WHT
  • 200012Z AUTO 21026G38KT 180V240 9999 FEW013 OVC015 08/06 Q0997 WHT
  • 192357Z AUTO 21023G33KT 180V240 9999 BKN014 OVC016 08/06 Q0997 GRN
  • 192355Z AUTO 21025G35KT 180V240 9999 SCT014 OVC016 08/06 Q0997 GRN

TAF TAF EHKD
Valid from the 20 at 02:00 until the 20 at 14:00 UTC


200105Z 2002/2014 20025G35KT 9999 FEW010 BKN015
PROB40
TEMPO 2002/2010 21028G42KT 4500 -RADZ FEW007 BKN010 OVC012
BECMG 2009/2012 FEW007 FEW018 BKN025



MET'MAP, your aeronautical weather chart ! - Copyright ORBIFLY December 2007 - Disclaimer

ORBIFLY MET'MAP TEAM :

Programming & Development : Alexandra Zaïnal
Concept & original design : Baudouin d'Aumeries
Assistance for programming : Marc-Olivier Méhu
Technical & hardware support : Manuel Goepfert

Contact : metmap@orbifly.com




SOURCES & CREDITS :

   NOAA